• Join FlightAware (Why Join?)
  • Login
  • US Flag 
 
07:32AM EST


 

Airport Tracker/Info


-or-


 

Live Flight TrackerFlight Track Log ✈ ASQ4905 ✈ 07-Aug-2014 ✈ KDTW - KOKC

Flight Track Log - Related Links

Times and Time Zones

All times are in EDT time to prevent confusion due to time zone crossing. See the ASQ4905 flight status page for this flight to view local times or setup timezone preferences in your user account.

Time Position Orientation Groundspeed Altitude Reporting Facility
EDT Latitude Longitude Course Direction KTS MPH feet Rate Location/Type
10:40PM 42.1961 -83.3600 229° Southwest 171 197 1,400  Level Cleveland Center
10:41PM 42.1794 -83.3858 229° Southwest 187 215 2,200 1,440 Climbing Cleveland Center
10:42PM 42.1539 -83.4311 233° Southwest 227 261 3,200 1,740 Climbing Cleveland Center
10:42PM 42.1356 -83.4642 233° Southwest 261 300 4,200 2,460 Climbing Cleveland Center
10:43PM 42.1311 -83.5244 264° West 268 308 5,800 2,700 Climbing Cleveland Center
10:43PM 42.1450 -83.5556 301° West 272 313 6,900 2,220 Climbing Cleveland Center
10:44PM 42.1708 -83.6108 302° West 273 314 8,100 2,400 Climbing Cleveland Center
10:44PM 42.1839 -83.6458 297° West 284 327 9,400 2,220 Climbing Cleveland Center
10:45PM 42.2119 -83.7067 302° West 285 328 10,400 1,560 Climbing Cleveland Center
10:45PM 42.2300 -83.7511 299° West 329 379 11,000 1,560 Climbing Cleveland Center
10:46PM 42.2603 -83.8150 303° West 323 372 12,000 1,260 Climbing Cleveland Center
10:47PM 42.3119 -83.9314 301° West 349 402 13,200 1,380 Climbing Cleveland Center
10:48PM 42.3661 -84.0539 301° West 374 430 14,900 1,560 Climbing Cleveland Center
10:49PM 42.4211 -84.1786 301° West 381 438 16,500 1,320 Climbing Cleveland Center
10:50PM 42.4319 -84.3283 276° West 397 457 17,700 1,440 Climbing Cleveland Center
10:51PM 42.4369 -84.5114 272° West 406 467 19,500 1,500 Climbing Cleveland Center
10:52PM 42.4414 -84.6656 272° West 409 471 20,800 1,260 Climbing Cleveland Center
10:53PM 42.4436 -84.8028 271° West 411 473 22,100 1,260 Climbing Cleveland Center
10:54PM 42.4478 -84.9581 272° West 413 475 23,500 1,320 Climbing Cleveland Center
10:55PM 42.4506 -85.1478 271° West 419 482 24,900 1,260 Climbing Cleveland Center
10:56PM 42.4542 -85.3067 272° West 420 483 26,100 1,140 Climbing Cleveland Center
10:57PM 42.4569 -85.4653 271° West 420 483 27,300 1,200 Climbing Cleveland Center
10:58PM 42.4589 -85.6236 271° West 420 483 28,600 1,080 Climbing Cleveland Center
10:59PM 42.4622 -85.7808 272° West 420 483 29,500 840 Climbing Cleveland Center
11:00PM 42.4642 -85.9403 271° West 419 482 30,400 780 Climbing Cleveland Center
11:01PM 42.4653 -86.1011 271° West 422 486 31,200 780 Climbing Cleveland Center
11:02PM 42.4469 -86.2600 261° West 425 489 32,000 780 Climbing Cleveland Center
11:03PM 42.4175 -86.4833 260° West 424 488 33,100 780 Climbing Chicago Center
11:04PM 42.3981 -86.6392 260° West 422 486 33,900 420 Climbing Chicago Center
11:06PM 42.3811 -86.7869 261° West 423 487 34,000  Climbing Chicago Center
11:07PM 42.3617 -86.9433 260° West 424 488 34,000  Level Chicago Center
11:08PM 42.3383 -87.0972 258° West 419 482 34,000  Level Chicago Center
11:09PM 42.2703 -87.2678 242° Southwest 427 491 34,000  Level Chicago Center
11:10PM 42.2053 -87.4044 237° Southwest 432 497 34,000  Level Chicago Center
11:11PM 42.1394 -87.5422 237° Southwest 434 499 34,000  Level Chicago Center
11:12PM 42.0750 -87.6797 238° Southwest 433 498 34,000  Level Chicago Center
11:13PM 42.0081 -87.8153 236° Southwest 434 499 34,000  Level Chicago Center
11:14PM 41.9428 -87.9503 237° Southwest 435 501 34,000  Level Chicago Center
11:15PM 41.8764 -88.0869 237° Southwest 435 501 34,000  Level Chicago Center
11:16PM 41.8083 -88.2275 237° Southwest 448 516 34,000  Level Chicago Center
11:17PM 41.7261 -88.3950 237° Southwest 451 519 34,000  Level Chicago Center
11:18PM 41.6572 -88.5347 237° Southwest 453 521 34,000  Level Chicago Center
11:19PM 41.5872 -88.6742 236° Southwest 454 522 34,000  Level Chicago Center
11:20PM 41.5164 -88.8164 236° Southwest 458 527 34,000  Level Chicago Center
11:21PM 41.4456 -88.9572 236° Southwest 459 528 34,000  Level Chicago Center
11:22PM 41.3742 -89.0986 236° Southwest 461 531 34,000  Level Chicago Center
11:23PM 41.2961 -89.2547 236° Southwest 462 532 34,000  Level Chicago Center
11:24PM 41.2242 -89.3961 236° Southwest 463 533 34,000  Level Chicago Center
11:25PM 41.1522 -89.5383 236° Southwest 465 535 34,000  Level Chicago Center
11:26PM 41.0803 -89.6792 236° Southwest 465 535 34,000  Level Chicago Center
11:27PM 40.9947 -89.8492 236° Southwest 465 535 34,000  Level Chicago Center
11:28PM 40.9272 -89.9794 236° Southwest 465 535 34,000  Level Chicago Center
11:29PM 40.8542 -90.1200 236° Southwest 464 534 34,000  Level Chicago Center
11:30PM 40.7772 -90.2669 235° Southwest 462 532 34,000  Level Chicago Center
11:31PM 40.7036 -90.4075 235° Southwest 467 537 34,000  Level Chicago Center
11:32PM 40.6292 -90.5486 235° Southwest 467 537 34,000  Level Chicago Center
11:33PM 40.5408 -90.7153 235° Southwest 464 534 34,000  Level Chicago Center
11:34PM 40.4650 -90.8564 235° Southwest 469 540 34,000  Level Chicago Center
11:35PM 40.4328 -90.9131 233° Southwest 469 540 34,000  Level Kansas City Center
11:36PM 40.3581 -91.0536 235° Southwest 469 540 34,000  Level Kansas City Center
11:37PM 40.2833 -91.1928 235° Southwest 469 540 34,000  Level Kansas City Center
11:38PM 40.1933 -91.3569 234° Southwest 469 540 34,000  Level Kansas City Center
11:39PM 40.1189 -91.4944 235° Southwest 469 540 34,000  Level Kansas City Center
11:40PM 40.0428 -91.6319 234° Southwest 469 540 34,000  Level Kansas City Center
11:41PM 39.9703 -91.7681 235° Southwest 466 536 34,000  Level Kansas City Center
11:42PM 39.8933 -91.9069 234° Southwest 468 539 34,000  Level Kansas City Center
11:43PM 39.8167 -92.0450 234° Southwest 469 540 34,000  Level Kansas City Center
11:44PM 39.7433 -92.1786 235° Southwest 461 531 34,000  Level Kansas City Center
11:45PM 39.6667 -92.3150 234° Southwest 463 533 34,000  Level Kansas City Center
11:46PM 39.5889 -92.4517 234° Southwest 468 539 34,000  Level Kansas City Center
11:47PM 39.5133 -92.5900 235° Southwest 470 541 34,000  Level Kansas City Center
11:48PM 39.4231 -92.7500 234° Southwest 469 540 34,000  Level Kansas City Center
11:49PM 39.3472 -92.8856 234° Southwest 469 540 34,000  Level Kansas City Center
11:50PM 39.2708 -93.0192 234° Southwest 468 539 34,000  Level Kansas City Center
11:51PM 39.1947 -93.1519 234° Southwest 466 536 34,000  Level Kansas City Center
11:52PM 39.1178 -93.2839 233° Southwest 466 536 34,000  Level Kansas City Center
11:53PM 39.0328 -93.4275 233° Southwest 464 534 34,000  Level Kansas City Center
11:54PM 38.9575 -93.5628 234° Southwest 459 528 34,000  Level Kansas City Center
11:55PM 38.8797 -93.6953 233° Southwest 462 532 34,000  Level Kansas City Center
11:56PM 38.8019 -93.8253 233° Southwest 463 533 34,000  Level Kansas City Center
11:57PM 38.7247 -93.9567 233° Southwest 463 533 34,000  Level Kansas City Center
11:58PM 38.6478 -94.0875 233° Southwest 462 532 34,000  Level Kansas City Center
11:59PM 38.5697 -94.2189 233° Southwest 462 532 34,000  Level Kansas City Center
12:00AM 38.4911 -94.3511 233° Southwest 462 532 34,000  Level Kansas City Center
12:01AM 38.4125 -94.4822 233° Southwest 463 533 34,000  Level Kansas City Center
12:02AM 38.3342 -94.6142 233° Southwest 464 534 34,000  Level Kansas City Center
12:03AM 38.2544 -94.7453 232° Southwest 464 534 34,000  Level Kansas City Center
12:04AM 38.1750 -94.8772 233° Southwest 465 535 34,000  Level Kansas City Center
12:05AM 38.0947 -95.0103 233° Southwest 467 537 34,000  Level Kansas City Center
12:06AM 37.9969 -95.1731 233° Southwest 480 552 34,000  Level Kansas City Center
12:07AM 37.9142 -95.3100 233° Southwest 480 552 34,000  Level Kansas City Center
12:08AM 37.8325 -95.4411 232° Southwest 478 550 34,000  Level Kansas City Center
12:09AM 37.7511 -95.5742 232° Southwest 478 550 34,000  Level Kansas City Center
12:10AM 37.6694 -95.7089 233° Southwest 478 550 34,000  Level Kansas City Center
12:11AM 37.5869 -95.8392 231° Southwest 478 550 34,000  Level Kansas City Center
12:12AM 37.5058 -95.9700 232° Southwest 478 550 34,000  Level Kansas City Center
12:13AM 37.4228 -96.1014 232° Southwest 478 550 34,000  Level Kansas City Center
12:14AM 37.3394 -96.2325 231° Southwest 478 550 34,000  Level Kansas City Center
12:15AM 37.2564 -96.3647 232° Southwest 479 551 34,000  Level Kansas City Center
12:16AM 37.1622 -96.5117 231° Southwest 480 552 34,000  Level Kansas City Center
12:17AM 37.0872 -96.6233 230° Southwest 480 552 34,000  Level Kansas City Center
12:18AM 36.9731 -96.7131 212° Southwest 486 559 34,000  Level Kansas City Center
12:20AM 36.8483 -96.7831 204° Southwest 490 564 34,000 -1,260 Level Kansas City Center
12:21AM 36.7019 -96.8656 204° Southwest 484 557 31,500 -2,760 Descending Kansas City Center
12:22AM 36.5814 -96.9336 204° Southwest 483 556 28,500 -2,820 Descending Kansas City Center
12:23AM 36.4742 -96.9939 204° Southwest 482 555 25,800 -2,820 Descending Kansas City Center
12:24AM 36.3597 -97.0592 205° Southwest 462 532 22,800 -3,060 Descending Kansas City Center
12:25AM 36.2467 -97.1228 204° Southwest 452 520 19,800 -3,000 Descending Kansas City Center
12:26AM 36.1369 -97.1817 203° Southwest 438 504 16,800 -3,060 Descending Kansas City Center
12:26AM 36.0742 -97.2186 205° Southwest 425 489 15,000 -3,120 Descending Fort Worth Center
12:27AM 35.9742 -97.2731 204° Southwest 398 458 12,000 -1,980 Descending Fort Worth Center
12:28AM 35.8789 -97.3578 216° Southwest 344 396 11,000 -1,140 Descending Fort Worth Center
12:29AM 35.8142 -97.4181 217° Southwest 303 349 9,800 -1,440 Descending Fort Worth Center
12:30AM 35.7497 -97.4797 218° Southwest 285 328 8,100 -1,740 Descending Fort Worth Center
12:31AM 35.6856 -97.5272 211° Southwest 278 320 6,400 -1,380 Descending Fort Worth Center
12:32AM 35.6133 -97.5631 202° Southwest 259 298 5,300 -1,080 Descending Fort Worth Center
12:33AM 35.5706 -97.5883 206° Southwest 216 249 4,500 -1,200 Descending Fort Worth Center
12:33AM 35.5583 -97.5928 196° South 219 252 4,100 -1,080 Descending Fort Worth Center
12:34AM 35.5178 -97.6053 194° South 180 207 3,300 -900 Descending Fort Worth Center
12:35AM 35.4672 -97.6061 181° South 160 184 2,500 -780 Descending Fort Worth Center
12:36AM 35.4314 -97.6072 181° South 126 145 1,800 -720 Descending Fort Worth Center
12:39AM 35.3931 -97.6008 199° South  Level Estimated